Tuskahoma, Oklahoma
Current Conditions -  °F | °C
As of 12:53 AM on Saturday 20 Dec 2014 (Local Time) from KMLC Reporting Station
Moderate Fog Moderate Fog  
Wind Chill: 39°   Ceiling: 200
Heat Index: 42°   Visibility: 0.5mi
Dew Point: 41°   Wind: 5mph
Humidity: 96%   Direction: 350°N
Pressure: 30.22"   Gusts: NA
Location:  34.62°N, 95.28°W
Report Text: KMLC 200653Z AUTO 35004KT 1/2SM FG VV002 06/05 A3022 RMK AO2 SLP233 T00560050
Loading
Personal Weather Stations






























Interactive Weather Map New forecast layout! Learn more

10-Day Weather Forecast

Advertisements
Track Severe Weather on mobile